Time;durP1;ratioP1;P1;durP2;ratioP2;P2;SDS_P1;SDS_P2;PMS_P1;PMS_P2;Temp;Humidity;BMP_temperature;BMP_pressure;BME280_temperature;BME280_humidity;BME280_pressure;Samples;Min_cycle;Max_cycle;Signal;HPM_P1;HPM_P2
2022/06/24 00:00:15;;;;;;;15.52;2.90;;;;;;;;;;5023144;28;20037;-74
2022/06/24 00:02:47;;;;;;;11.23;2.60;;;;;;;;;;5027351;28;20025;-75
2022/06/24 00:05:13;;;;;;;14.75;3.05;;;;;;;;;;5025082;28;20117;-74
2022/06/24 00:07:46;;;;;;;14.85;3.58;;;;;;;;;;5019239;28;20137;-75
2022/06/24 00:10:12;;;;;;;18.15;3.10;;;;;;;;;;5026706;28;20080;-74
2022/06/24 00:12:38;;;;;;;16.98;3.22;;;;;;;;;;5023474;28;20033;-74
2022/06/24 00:15:05;;;;;;;10.32;3.10;;;;;;;;;;5027437;28;20041;-74
2022/06/24 00:17:32;;;;;;;15.73;3.33;;;;;;;;;;5020387;28;20541;-74
2022/06/24 00:20:02;;;;;;;10.57;3.03;;;;;;;;;;5027437;28;20026;-75
2022/06/24 00:22:29;;;;;;;16.95;3.90;;;;;;;;;;5018574;28;20677;-74
2022/06/24 00:25:07;;;;;;;12.10;3.25;;;;;;;;;;5027112;28;20112;-74
2022/06/24 00:27:34;;;;;;;14.98;3.05;;;;;;;;;;5025455;28;20136;-74
2022/06/24 00:30:07;;;;;;;11.20;3.25;;;;;;;;;;5017107;28;20140;-74
2022/06/24 00:32:33;;;;;;;10.82;3.53;;;;;;;;;;5024647;28;20025;-74
2022/06/24 00:35:18;;;;;;;13.57;4.38;;;;;;;;;;5027368;28;20041;-74
2022/06/24 00:37:45;;;;;;;16.20;4.47;;;;;;;;;;5018198;28;20037;-75
2022/06/24 00:40:11;;;;;;;16.83;4.78;;;;;;;;;;5009318;28;20376;-74
2022/06/24 00:42:38;;;;;;;16.92;5.45;;;;;;;;;;5022410;28;20029;-74
2022/06/24 00:45:24;;;;;;;14.60;6.40;;;;;;;;;;5015732;28;20383;-74
2022/06/24 00:47:51;;;;;;;16.67;9.60;;;;;;;;;;5024554;28;20486;-74
2022/06/24 00:50:32;;;;;;;18.20;9.70;;;;;;;;;;5023973;28;20081;-74
2022/06/24 00:52:59;;;;;;;18.05;8.30;;;;;;;;;;5030267;28;20063;-74
2022/06/24 00:55:29;;;;;;;18.23;7.57;;;;;;;;;;5023290;28;20210;-74
2022/06/24 00:57:55;;;;;;;21.40;9.02;;;;;;;;;;5029560;28;20025;-74
2022/06/24 01:00:25;;;;;;;17.35;6.18;;;;;;;;;;5029357;28;20084;-74
2022/06/24 01:02:56;;;;;;;13.00;4.93;;;;;;;;;;5029950;28;20029;-74
2022/06/24 01:05:22;;;;;;;21.27;5.38;;;;;;;;;;5023517;28;20042;-74
2022/06/24 01:07:48;;;;;;;14.88;5.45;;;;;;;;;;5028575;28;20026;-74
2022/06/24 01:10:14;;;;;;;13.40;2.95;;;;;;;;;;5029064;28;20087;-74
2022/06/24 01:12:40;;;;;;;13.82;3.78;;;;;;;;;;5026993;28;20056;-75
2022/06/24 01:15:06;;;;;;;14.38;4.97;;;;;;;;;;5030396;28;20041;-74
2022/06/24 01:17:33;;;;;;;14.35;6.70;;;;;;;;;;5028450;28;20029;-74
2022/06/24 01:19:59;;;;;;;23.92;9.35;;;;;;;;;;5028437;28;20041;-74
2022/06/24 01:22:26;;;;;;;19.45;10.73;;;;;;;;;;5017489;28;20101;-74
2022/06/24 01:24:53;;;;;;;23.42;14.82;;;;;;;;;;5023638;28;20037;-75
2022/06/24 01:27:19;;;;;;;22.30;13.00;;;;;;;;;;5029389;28;20021;-74
2022/06/24 01:29:45;;;;;;;25.15;17.38;;;;;;;;;;5025376;28;20045;-74
2022/06/24 01:32:11;;;;;;;36.50;32.63;;;;;;;;;;5029999;28;20036;-74
2022/06/24 01:34:38;;;;;;;40.88;36.63;;;;;;;;;;5022773;28;20042;-75
2022/06/24 01:37:04;;;;;;;31.63;28.25;;;;;;;;;;5030171;28;20791;-74
2022/06/24 01:39:31;;;;;;;26.85;19.15;;;;;;;;;;5028057;28;20529;-74
2022/06/24 01:41:57;;;;;;;21.50;13.25;;;;;;;;;;5030043;28;20426;-75
2022/06/24 01:44:23;;;;;;;18.73;6.93;;;;;;;;;;5026561;28;20041;-74
2022/06/24 01:46:50;;;;;;;13.23;6.32;;;;;;;;;;5021222;28;20034;-74
2022/06/24 01:49:16;;;;;;;19.35;9.18;;;;;;;;;;5022564;28;20057;-74
2022/06/24 01:51:43;;;;;;;19.17;6.80;;;;;;;;;;5016781;28;20033;-74
2022/06/24 01:54:09;;;;;;;13.90;4.10;;;;;;;;;;5029047;28;20052;-74
2022/06/24 01:56:36;;;;;;;11.27;3.30;;;;;;;;;;5022458;28;20036;-74
2022/06/24 01:59:02;;;;;;;11.77;2.75;;;;;;;;;;5029238;28;20038;-74
2022/06/24 02:01:28;;;;;;;21.50;3.88;;;;;;;;;;5027032;28;20104;-74
2022/06/24 02:03:54;;;;;;;14.25;4.53;;;;;;;;;;5027809;28;20056;-74
2022/06/24 02:06:20;;;;;;;8.85;3.67;;;;;;;;;;5028205;28;20057;-74
2022/06/24 02:08:46;;;;;;;14.45;3.85;;;;;;;;;;5029213;28;20068;-74
2022/06/24 02:14:01;;;;;;;13.60;5.30;;;;;;;;;;5016894;28;20537;-74
2022/06/24 02:16:27;;;;;;;16.25;10.05;;;;;;;;;;5020675;28;20044;-74
2022/06/24 02:18:57;;;;;;;17.35;7.50;;;;;;;;;;5029078;28;20060;-74
2022/06/24 02:21:24;;;;;;;19.05;11.02;;;;;;;;;;5021539;28;20108;-75
2022/06/24 02:23:50;;;;;;;22.67;12.48;;;;;;;;;;5024081;28;20463;-74
2022/06/24 02:26:17;;;;;;;20.55;11.55;;;;;;;;;;5028393;28;20034;-74
2022/06/24 02:28:43;;;;;;;21.73;10.30;;;;;;;;;;5027968;28;20077;-74
2022/06/24 02:31:09;;;;;;;18.75;9.73;;;;;;;;;;5029012;28;20793;-74
2022/06/24 02:33:35;;;;;;;20.13;10.52;;;;;;;;;;5017918;28;20034;-74
2022/06/24 02:36:02;;;;;;;20.15;10.45;;;;;;;;;;5022286;28;20021;-74
2022/06/24 02:38:28;;;;;;;22.40;9.63;;;;;;;;;;5026789;28;20045;-74
2022/06/24 02:40:54;;;;;;;18.67;7.53;;;;;;;;;;5028492;28;20057;-74
2022/06/24 02:43:21;;;;;;;17.08;6.53;;;;;;;;;;5024471;28;20076;-74
2022/06/24 02:45:52;;;;;;;14.57;4.88;;;;;;;;;;5028743;28;20061;-74
2022/06/24 02:48:19;;;;;;;14.43;5.25;;;;;;;;;;5025961;28;20101;-74
2022/06/24 02:50:46;;;;;;;18.60;5.30;;;;;;;;;;5028252;28;20057;-74
2022/06/24 02:53:14;;;;;;;12.27;4.55;;;;;;;;;;5026926;28;20033;-74
2022/06/24 02:55:41;;;;;;;19.73;5.22;;;;;;;;;;5021841;28;20029;-74
2022/06/24 02:58:07;;;;;;;21.33;11.98;;;;;;;;;;5027500;28;20052;-74
2022/06/24 03:00:33;;;;;;;15.93;7.25;;;;;;;;;;5025627;28;20438;-74
2022/06/24 03:03:00;;;;;;;14.43;4.75;;;;;;;;;;5026542;28;20116;-74
2022/06/24 03:05:26;;;;;;;16.00;4.95;;;;;;;;;;5023902;28;20037;-74
2022/06/24 03:07:53;;;;;;;12.60;3.28;;;;;;;;;;5028264;28;20095;-74
2022/06/24 03:10:19;;;;;;;11.00;3.08;;;;;;;;;;5019613;28;20033;-74
2022/06/24 03:12:46;;;;;;;16.50;3.40;;;;;;;;;;5028151;28;20087;-74
2022/06/24 03:15:12;;;;;;;13.75;3.75;;;;;;;;;;5025529;28;20467;-74
2022/06/24 03:17:38;;;;;;;14.00;3.17;;;;;;;;;;5028125;28;20040;-74
2022/06/24 03:20:05;;;;;;;21.70;4.25;;;;;;;;;;5023726;28;20037;-74
2022/06/24 03:22:31;;;;;;;18.90;4.68;;;;;;;;;;5027803;28;20484;-75
2022/06/24 03:24:57;;;;;;;16.15;4.32;;;;;;;;;;5025231;28;20033;-74
2022/06/24 03:27:23;;;;;;;12.65;3.75;;;;;;;;;;5020351;28;20490;-74
2022/06/24 03:29:49;;;;;;;14.40;3.72;;;;;;;;;;5027323;28;20037;-75
2022/06/24 03:32:15;;;;;;;13.05;3.58;;;;;;;;;;5025147;28;20045;-74
2022/06/24 03:34:41;;;;;;;13.32;3.65;;;;;;;;;;5027834;28;20046;-74
2022/06/24 03:37:07;;;;;;;16.13;4.97;;;;;;;;;;5027088;28;20087;-74
2022/06/24 03:39:33;;;;;;;14.82;5.47;;;;;;;;;;5028429;28;20033;-74
2022/06/24 03:41:59;;;;;;;19.85;5.63;;;;;;;;;;5024942;28;20467;-74
2022/06/24 03:44:26;;;;;;;19.02;5.93;;;;;;;;;;5027645;28;20041;-74
2022/06/24 03:46:52;;;;;;;16.67;6.57;;;;;;;;;;5022786;28;20037;-74
2022/06/24 03:49:19;;;;;;;17.58;6.13;;;;;;;;;;5027350;28;20057;-74
2022/06/24 03:51:45;;;;;;;17.75;5.10;;;;;;;;;;5026135;28;20030;-74
2022/06/24 03:54:11;;;;;;;13.90;5.90;;;;;;;;;;5024066;28;20091;-74
2022/06/24 03:56:37;;;;;;;7.38;2.47;;;;;;;;;;5019421;28;20026;-74
2022/06/24 03:59:04;;;;;;;7.35;2.08;;;;;;;;;;5016288;28;20044;-74
2022/06/24 04:01:30;;;;;;;11.02;2.63;;;;;;;;;;5016659;28;20761;-74
2022/06/24 04:03:56;;;;;;;14.50;3.75;;;;;;;;;;5026975;28;20037;-74
2022/06/24 04:06:22;;;;;;;10.70;6.55;;;;;;;;;;5021508;28;20053;-74
2022/06/24 04:08:48;;;;;;;11.63;6.72;;;;;;;;;;5022086;28;20060;-74
2022/06/24 04:11:15;;;;;;;17.35;7.82;;;;;;;;;;5026171;28;20108;-74
2022/06/24 04:13:42;;;;;;;14.18;6.40;;;;;;;;;;5019661;28;20479;-74
2022/06/24 04:16:08;;;;;;;17.50;8.27;;;;;;;;;;5025154;28;20537;-74
2022/06/24 04:18:34;;;;;;;17.38;7.03;;;;;;;;;;5023300;28;20122;-74
2022/06/24 04:21:00;;;;;;;12.57;5.50;;;;;;;;;;5023532;28;20021;-74
2022/06/24 04:23:27;;;;;;;11.05;3.38;;;;;;;;;;5024335;28;20045;-74
2022/06/24 04:25:53;;;;;;;12.50;3.05;;;;;;;;;;5025686;28;20025;-74
2022/06/24 04:28:19;;;;;;;13.15;3.40;;;;;;;;;;5028064;28;20664;-74
2022/06/24 04:30:46;;;;;;;16.13;5.35;;;;;;;;;;5025204;28;20041;-74
2022/06/24 04:33:12;;;;;;;13.52;5.05;;;;;;;;;;5027165;28;20107;-74
2022/06/24 04:35:40;;;;;;;19.88;6.53;;;;;;;;;;5016921;28;20026;-75
2022/06/24 04:38:06;;;;;;;23.30;9.57;;;;;;;;;;5030436;28;20040;-74
2022/06/24 04:40:32;;;;;;;17.95;8.25;;;;;;;;;;5030828;28;20026;-74
2022/06/24 04:42:58;;;;;;;23.27;8.32;;;;;;;;;;5027044;28;20486;-75
2022/06/24 04:45:24;;;;;;;22.48;9.00;;;;;;;;;;5019993;28;20038;-74
2022/06/24 04:47:50;;;;;;;20.00;7.47;;;;;;;;;;5028446;28;20033;-74
2022/06/24 04:50:16;;;;;;;17.88;7.07;;;;;;;;;;5026833;28;20050;-74
2022/06/24 04:52:42;;;;;;;18.33;7.05;;;;;;;;;;5026500;28;20502;-74
2022/06/24 04:55:08;;;;;;;15.57;6.20;;;;;;;;;;5030202;28;20131;-74
2022/06/24 04:57:34;;;;;;;15.82;5.45;;;;;;;;;;5023999;28;20520;-74
2022/06/24 05:00:00;;;;;;;26.13;7.28;;;;;;;;;;5030587;28;20044;-74
2022/06/24 05:02:27;;;;;;;17.13;4.85;;;;;;;;;;5019384;28;20044;-74
2022/06/24 05:04:53;;;;;;;9.93;2.60;;;;;;;;;;5021840;28;20045;-74
2022/06/24 05:07:19;;;;;;;12.30;2.70;;;;;;;;;;5026674;28;20070;-74
2022/06/24 05:09:46;;;;;;;12.40;2.95;;;;;;;;;;5019088;28;20042;-74
2022/06/24 05:12:12;;;;;;;13.40;3.55;;;;;;;;;;5024716;28;20037;-74
2022/06/24 05:14:38;;;;;;;12.32;2.92;;;;;;;;;;5019642;28;20037;-74
2022/06/24 05:17:04;;;;;;;14.32;3.70;;;;;;;;;;5028190;28;20037;-74
2022/06/24 05:19:30;;;;;;;11.35;3.20;;;;;;;;;;5010331;28;20105;-74
2022/06/24 05:21:56;;;;;;;12.55;3.78;;;;;;;;;;5019512;28;20116;-74
2022/06/24 05:24:22;;;;;;;11.52;3.75;;;;;;;;;;5013610;28;20047;-74
2022/06/24 05:26:49;;;;;;;13.10;5.30;;;;;;;;;;5017951;28;20037;-74
2022/06/24 05:29:15;;;;;;;13.15;6.20;;;;;;;;;;5018930;28;20463;-74
2022/06/24 05:31:41;;;;;;;18.60;7.10;;;;;;;;;;5026459;28;20033;-74
2022/06/24 05:34:07;;;;;;;17.30;8.07;;;;;;;;;;5023374;28;20212;-74
2022/06/24 05:36:34;;;;;;;20.95;9.45;;;;;;;;;;5022903;28;20022;-74
2022/06/24 05:39:03;;;;;;;17.80;9.10;;;;;;;;;;5020875;28;20463;-74
2022/06/24 05:41:30;;;;;;;18.30;7.20;;;;;;;;;;5013563;28;20025;-74
2022/06/24 05:43:56;;;;;;;20.98;5.57;;;;;;;;;;5022370;28;20041;-74
2022/06/24 05:46:22;;;;;;;16.02;5.15;;;;;;;;;;5028182;28;20053;-74
2022/06/24 05:48:48;;;;;;;14.02;3.63;;;;;;;;;;5028616;28;20068;-74
2022/06/24 05:51:18;;;;;;;15.23;3.30;;;;;;;;;;5025997;28;20041;-74
2022/06/24 05:56:30;;;;;;;9.88;2.80;;;;;;;;;;5018301;28;20121;-74
2022/06/24 05:58:57;;;;;;;14.35;2.60;;;;;;;;;;5028039;28;20047;-74
2022/06/24 06:01:23;;;;;;;11.45;2.40;;;;;;;;;;5019853;28;20036;-74
2022/06/24 06:03:50;;;;;;;13.93;2.67;;;;;;;;;;5028670;28;20053;-74
2022/06/24 06:06:16;;;;;;;16.20;3.25;;;;;;;;;;5021708;28;20029;-74
2022/06/24 06:08:42;;;;;;;13.35;4.25;;;;;;;;;;5028526;28;20075;-74
2022/06/24 06:11:12;;;;;;;18.77;4.03;;;;;;;;;;5019668;28;20120;-74
2022/06/24 06:13:39;;;;;;;15.50;3.47;;;;;;;;;;5029158;28;20554;-74
2022/06/24 06:16:05;;;;;;;13.70;3.83;;;;;;;;;;5025221;28;20034;-74
2022/06/24 06:18:31;;;;;;;11.30;2.80;;;;;;;;;;5022729;28;20630;-74
2022/06/24 06:21:01;;;;;;;11.38;3.67;;;;;;;;;;5024265;28;20041;-74
2022/06/24 06:23:28;;;;;;;14.85;5.28;;;;;;;;;;5018991;28;20037;-74
2022/06/24 06:25:54;;;;;;;15.82;5.25;;;;;;;;;;5024184;28;20036;-74
2022/06/24 06:28:20;;;;;;;41.63;9.90;;;;;;;;;;5024555;28;20040;-74
2022/06/24 06:30:46;;;;;;;41.47;9.38;;;;;;;;;;5021170;28;20042;-75
2022/06/24 06:33:12;;;;;;;39.45;9.65;;;;;;;;;;5023067;28;20095;-74
2022/06/24 06:35:38;;;;;;;20.50;5.22;;;;;;;;;;5031647;28;20040;-74
2022/06/24 06:38:04;;;;;;;10.48;2.10;;;;;;;;;;5025845;28;20086;-74
2022/06/24 06:40:30;;;;;;;6.05;1.50;;;;;;;;;;5027901;28;20030;-74
2022/06/24 06:42:56;;;;;;;11.65;2.92;;;;;;;;;;5022269;28;20028;-74
2022/06/24 06:45:23;;;;;;;14.25;2.40;;;;;;;;;;5024556;28;20045;-74
2022/06/24 06:47:49;;;;;;;16.45;2.92;;;;;;;;;;5025053;28;20443;-74
2022/06/24 06:50:15;;;;;;;13.93;2.85;;;;;;;;;;5024878;28;20095;-74
2022/06/24 06:52:41;;;;;;;9.73;2.50;;;;;;;;;;5021094;28;20034;-75
2022/06/24 06:55:07;;;;;;;8.15;2.45;;;;;;;;;;5019227;28;20051;-74
2022/06/24 06:57:33;;;;;;;10.45;2.72;;;;;;;;;;5021960;28;20068;-74
2022/06/24 06:59:59;;;;;;;7.82;3.90;;;;;;;;;;5021322;28;20033;-74
2022/06/24 07:02:25;;;;;;;13.00;4.40;;;;;;;;;;5024907;28;20033;-74
2022/06/24 07:04:51;;;;;;;11.07;3.72;;;;;;;;;;5021643;28;20037;-75
2022/06/24 07:07:17;;;;;;;11.82;2.47;;;;;;;;;;5019902;28;20067;-74
2022/06/24 07:09:44;;;;;;;8.93;1.63;;;;;;;;;;5026261;28;20550;-74
2022/06/24 07:12:10;;;;;;;9.52;1.60;;;;;;;;;;5023244;28;20022;-74
2022/06/24 07:14:37;;;;;;;8.15;1.30;;;;;;;;;;5024106;28;20814;-74
2022/06/24 07:17:03;;;;;;;8.32;2.13;;;;;;;;;;5026329;28;20029;-74
2022/06/24 07:19:29;;;;;;;9.85;1.58;;;;;;;;;;5029824;28;20068;-74
2022/06/24 07:21:55;;;;;;;7.50;2.00;;;;;;;;;;5025544;28;20061;-74
2022/06/24 07:24:21;;;;;;;5.70;1.83;;;;;;;;;;5016815;28;20080;-74
2022/06/24 07:26:47;;;;;;;14.90;2.22;;;;;;;;;;5025593;28;20041;-74
2022/06/24 07:29:13;;;;;;;6.28;2.10;;;;;;;;;;5023880;28;20529;-74
2022/06/24 07:31:39;;;;;;;6.75;2.42;;;;;;;;;;5022301;28;20025;-75
2022/06/24 07:34:06;;;;;;;8.80;3.90;;;;;;;;;;5024195;28;20038;-74
2022/06/24 07:36:32;;;;;;;14.85;3.28;;;;;;;;;;5022961;28;20030;-74
2022/06/24 07:38:58;;;;;;;11.48;2.72;;;;;;;;;;5019170;28;20044;-74
2022/06/24 07:41:24;;;;;;;9.48;4.55;;;;;;;;;;5025038;28;20025;-74
2022/06/24 07:43:50;;;;;;;11.38;4.72;;;;;;;;;;5020519;28;20041;-74
2022/06/24 07:46:16;;;;;;;14.05;4.65;;;;;;;;;;5014321;28;20026;-74
2022/06/24 07:48:42;;;;;;;12.75;3.35;;;;;;;;;;5024627;28;20037;-74
2022/06/24 07:51:09;;;;;;;9.27;2.33;;;;;;;;;;5023597;28;20068;-74
2022/06/24 07:53:35;;;;;;;5.47;1.75;;;;;;;;;;5025046;28;20463;-74
2022/06/24 07:58:46;;;;;;;7.30;1.83;;;;;;;;;;5023033;28;20126;-74
2022/06/24 08:01:12;;;;;;;7.25;1.40;;;;;;;;;;5029377;28;20025;-74
2022/06/24 08:03:38;;;;;;;7.63;1.67;;;;;;;;;;5024230;28;20859;-74
2022/06/24 08:06:04;;;;;;;5.90;1.45;;;;;;;;;;5031784;28;20029;-74
2022/06/24 08:08:31;;;;;;;3.00;0.82;;;;;;;;;;5029878;28;20443;-74
2022/06/24 08:10:57;;;;;;;4.93;1.25;;;;;;;;;;5030880;28;20025;-74
2022/06/24 08:13:23;;;;;;;5.63;0.80;;;;;;;;;;5029080;28;20490;-74
2022/06/24 08:15:49;;;;;;;3.65;0.77;;;;;;;;;;5030257;28;20554;-74
2022/06/24 08:18:17;;;;;;;4.13;0.77;;;;;;;;;;5033942;28;20052;-74
2022/06/24 08:20:43;;;;;;;5.20;1.10;;;;;;;;;;5030221;28;20379;-74
2022/06/24 08:23:09;;;;;;;4.93;1.27;;;;;;;;;;5027028;28;20056;-74
2022/06/24 08:25:35;;;;;;;3.33;1.00;;;;;;;;;;5031033;28;20554;-74
2022/06/24 08:28:01;;;;;;;5.75;1.38;;;;;;;;;;5031296;28;20097;-74
2022/06/24 08:30:27;;;;;;;6.20;1.83;;;;;;;;;;5025130;28;20042;-74
2022/06/24 08:32:53;;;;;;;5.60;1.50;;;;;;;;;;5025052;28;20033;-74
2022/06/24 08:35:19;;;;;;;8.63;2.22;;;;;;;;;;5028753;28;20082;-74
2022/06/24 08:37:45;;;;;;;5.22;1.40;;;;;;;;;;5028623;28;20037;-74
2022/06/24 08:40:12;;;;;;;5.45;1.48;;;;;;;;;;5027867;28;20364;-74
2022/06/24 08:42:38;;;;;;;8.13;2.05;;;;;;;;;;5023334;28;20029;-74
2022/06/24 08:45:05;;;;;;;4.28;1.67;;;;;;;;;;5032060;28;20108;-74
2022/06/24 08:47:31;;;;;;;8.35;2.65;;;;;;;;;;5027717;28;20394;-74
2022/06/24 08:49:57;;;;;;;9.45;2.40;;;;;;;;;;5029342;28;20402;-74
2022/06/24 08:52:23;;;;;;;9.73;2.60;;;;;;;;;;5025300;28;20156;-75
2022/06/24 08:54:50;;;;;;;8.15;2.17;;;;;;;;;;5027478;28;20112;-74
2022/06/24 08:57:16;;;;;;;5.25;1.10;;;;;;;;;;5028460;28;20065;-74
2022/06/24 08:59:46;;;;;;;8.73;2.25;;;;;;;;;;5027189;28;20145;-74
2022/06/24 09:02:15;;;;;;;4.55;1.42;;;;;;;;;;5024729;28;20913;-74
2022/06/24 09:04:45;;;;;;;4.70;1.38;;;;;;;;;;5026604;28;20061;-75
2022/06/24 09:07:17;;;;;;;5.20;0.95;;;;;;;;;;5022286;28;20407;-74
2022/06/24 09:09:56;;;;;;;4.65;1.25;;;;;;;;;;5029278;28;20117;-74
2022/06/24 09:12:22;;;;;;;5.68;1.02;;;;;;;;;;5026170;28;20057;-75
2022/06/24 09:14:48;;;;;;;4.68;0.80;;;;;;;;;;5024831;28;20079;-74
2022/06/24 09:17:14;;;;;;;4.50;1.15;;;;;;;;;;5026268;28;20025;-74
2022/06/24 09:19:40;;;;;;;7.85;1.48;;;;;;;;;;5027595;28;20367;-74
2022/06/24 09:22:06;;;;;;;7.40;1.25;;;;;;;;;;5028238;28;20121;-74
2022/06/24 09:24:45;;;;;;;5.80;0.90;;;;;;;;;;5021288;28;20083;-74
2022/06/24 09:27:11;;;;;;;5.05;1.45;;;;;;;;;;5026249;28;20087;-74
2022/06/24 09:29:37;;;;;;;6.97;1.30;;;;;;;;;;5019268;28;20034;-74
2022/06/24 09:32:04;;;;;;;6.93;1.50;;;;;;;;;;5025720;28;20056;-74
2022/06/24 09:34:30;;;;;;;5.93;1.50;;;;;;;;;;5027717;28;20038;-74
2022/06/24 09:36:56;;;;;;;7.90;1.38;;;;;;;;;;5020589;28;20068;-75
2022/06/24 09:39:22;;;;;;;5.95;1.60;;;;;;;;;;5024125;28;20037;-74
2022/06/24 09:41:49;;;;;;;9.13;1.58;;;;;;;;;;5030584;28;20822;-74
2022/06/24 09:44:16;;;;;;;20.38;2.88;;;;;;;;;;5026553;28;20363;-74
2022/06/24 09:46:42;;;;;;;16.50;2.88;;;;;;;;;;5028937;28;20071;-74
2022/06/24 09:49:11;;;;;;;11.18;3.45;;;;;;;;;;5026814;28;20076;-74
2022/06/24 09:51:39;;;;;;;23.05;3.53;;;;;;;;;;5025462;28;20036;-75
2022/06/24 09:54:05;;;;;;;15.20;3.50;;;;;;;;;;5021656;28;20040;-74
2022/06/24 09:56:31;;;;;;;10.45;2.38;;;;;;;;;;5023833;28;20039;-74
2022/06/24 10:01:43;;;;;;;8.43;1.30;;;;;;;;;;5017343;28;20044;-74
2022/06/24 10:04:09;;;;;;;13.20;2.00;;;;;;;;;;5022794;28;20057;-74
2022/06/24 10:06:37;;;;;;;10.70;2.83;;;;;;;;;;5018955;28;20065;-74
2022/06/24 10:09:05;;;;;;;8.55;1.77;;;;;;;;;;5021423;28;20471;-74
2022/06/24 10:11:33;;;;;;;5.85;1.38;;;;;;;;;;5020823;28;20060;-74
2022/06/24 10:14:00;;;;;;;9.43;1.80;;;;;;;;;;5019333;28;20060;-74
2022/06/24 10:16:26;;;;;;;6.43;1.30;;;;;;;;;;5025396;28;20498;-75
2022/06/24 10:18:53;;;;;;;7.10;1.60;;;;;;;;;;5019406;28;20037;-74
2022/06/24 10:21:19;;;;;;;6.78;1.13;;;;;;;;;;5014938;28;20075;-74
2022/06/24 10:23:48;;;;;;;5.43;1.10;;;;;;;;;;5016563;28;20049;-74
2022/06/24 10:26:14;;;;;;;3.65;0.80;;;;;;;;;;5025025;28;20041;-75
2022/06/24 10:29:04;;;;;;;6.95;1.10;;;;;;;;;;5022690;28;20045;-74
2022/06/24 10:31:48;;;;;;;7.03;1.30;;;;;;;;;;5024073;28;20502;-74
2022/06/24 10:34:22;;;;;;;9.32;1.52;;;;;;;;;;5026038;28;20045;-74
2022/06/24 10:36:49;;;;;;;8.65;1.60;;;;;;;;;;5027815;28;20068;-74
2022/06/24 10:39:17;;;;;;;6.57;1.05;;;;;;;;;;5025585;28;20032;-74
2022/06/24 10:41:44;;;;;;;6.20;1.30;;;;;;;;;;5020892;28;20105;-74
2022/06/24 10:44:33;;;;;;;4.28;1.00;;;;;;;;;;5025503;28;20037;-74
2022/06/24 10:47:05;;;;;;;5.60;1.35;;;;;;;;;;5021662;28;20730;-74
2022/06/24 10:49:50;;;;;;;3.10;0.80;;;;;;;;;;5018518;28;20529;-74
2022/06/24 10:52:35;;;;;;;6.72;0.70;;;;;;;;;;5024937;28;20116;-74
2022/06/24 10:55:28;;;;;;;6.18;0.90;;;;;;;;;;5019629;28;20033;-74
2022/06/24 10:57:56;;;;;;;5.78;1.38;;;;;;;;;;5023872;28;20030;-74
2022/06/24 11:00:23;;;;;;;8.27;1.35;;;;;;;;;;5021805;28;20076;-74
2022/06/24 11:02:57;;;;;;;6.03;0.90;;;;;;;;;;5026085;28;20033;-74
2022/06/24 11:05:23;;;;;;;3.67;0.60;;;;;;;;;;5023561;28;20077;-74
2022/06/24 11:07:51;;;;;;;4.03;0.75;;;;;;;;;;5023430;28;20476;-74
2022/06/24 11:10:24;;;;;;;3.60;0.65;;;;;;;;;;5023211;28;20041;-74
2022/06/24 11:12:54;;;;;;;5.38;0.88;;;;;;;;;;5019270;28;20477;-74
2022/06/24 11:15:37;;;;;;;6.70;0.90;;;;;;;;;;5025921;28;20034;-74
2022/06/24 11:18:21;;;;;;;4.60;0.90;;;;;;;;;;5021436;28;20538;-74
2022/06/24 11:20:52;;;;;;;4.78;1.00;;;;;;;;;;5023031;28;20033;-74
2022/06/24 11:23:19;;;;;;;6.97;0.60;;;;;;;;;;5024168;28;20067;-74
2022/06/24 11:25:46;;;;;;;1.55;0.35;;;;;;;;;;5023910;28;20120;-74
2022/06/24 11:28:18;;;;;;;2.85;0.60;;;;;;;;;;5023174;28;20474;-74
2022/06/24 11:30:44;;;;;;;4.13;0.40;;;;;;;;;;5024097;28;20029;-74
2022/06/24 11:33:10;;;;;;;2.90;0.63;;;;;;;;;;5025327;28;20032;-74
2022/06/24 11:35:37;;;;;;;4.03;0.70;;;;;;;;;;5016027;28;20029;-74
2022/06/24 11:38:05;;;;;;;1.90;0.60;;;;;;;;;;5023017;28;20021;-74
2022/06/24 11:40:32;;;;;;;1.73;0.52;;;;;;;;;;5024696;28;20029;-74
2022/06/24 11:43:05;;;;;;;3.33;0.50;;;;;;;;;;5023037;28;20923;-74
2022/06/24 11:45:32;;;;;;;4.45;0.50;;;;;;;;;;5022008;28;20785;-74
2022/06/24 11:47:58;;;;;;;1.67;0.43;;;;;;;;;;5025323;28;20057;-74
2022/06/24 11:50:24;;;;;;;3.13;0.40;;;;;;;;;;5018587;28;20068;-74
2022/06/24 11:52:50;;;;;;;2.05;0.50;;;;;;;;;;5020546;28;20114;-75
2022/06/24 11:55:33;;;;;;;3.22;0.52;;;;;;;;;;5019895;28;20044;-74
2022/06/24 11:57:59;;;;;;;2.33;0.30;;;;;;;;;;5018950;28;20033;-74
2022/06/24 12:00:26;;;;;;;1.55;0.30;;;;;;;;;;5025703;28;20033;-74
2022/06/24 12:02:53;;;;;;;4.03;0.47;;;;;;;;;;5021539;28;20103;-74
2022/06/24 12:05:20;;;;;;;3.95;0.70;;;;;;;;;;5023125;28;20468;-74
2022/06/24 12:07:46;;;;;;;3.92;0.60;;;;;;;;;;5013558;28;20120;-74
2022/06/24 12:10:13;;;;;;;3.30;0.60;;;;;;;;;;5024614;28;20781;-74
2022/06/24 12:12:55;;;;;;;3.22;0.75;;;;;;;;;;5021315;28;20030;-74
2022/06/24 12:15:21;;;;;;;3.05;0.50;;;;;;;;;;5026743;28;20580;-74
2022/06/24 12:17:54;;;;;;;6.30;0.60;;;;;;;;;;5021466;28;20048;-74
2022/06/24 12:20:22;;;;;;;2.50;0.50;;;;;;;;;;5017150;28;20033;-74
2022/06/24 12:23:08;;;;;;;3.72;0.50;;;;;;;;;;5019839;28;20029;-74
2022/06/24 12:25:41;;;;;;;3.38;0.57;;;;;;;;;;5018633;28;20048;-74
2022/06/24 12:28:13;;;;;;;1.88;0.28;;;;;;;;;;5016657;28;20099;-74
2022/06/24 12:30:39;;;;;;;3.17;0.40;;;;;;;;;;5019503;28;20057;-74
2022/06/24 12:33:10;;;;;;;10.40;3.28;;;;;;;;;;5017272;28;20045;-74
2022/06/24 12:35:38;;;;;;;7.28;1.50;;;;;;;;;;5022020;28;20044;-74
2022/06/24 12:38:13;;;;;;;2.53;0.70;;;;;;;;;;5016353;28;20032;-74
2022/06/24 12:40:40;;;;;;;2.55;0.50;;;;;;;;;;5026594;28;20060;-74
2022/06/24 12:43:06;;;;;;;4.35;0.60;;;;;;;;;;5021328;28;20111;-74
2022/06/24 12:45:34;;;;;;;3.47;0.50;;;;;;;;;;5030477;28;20057;-74
2022/06/24 12:50:55;;;;;;;2.70;0.93;;;;;;;;;;5027163;28;20067;-74
2022/06/24 12:53:21;;;;;;;5.22;1.20;;;;;;;;;;5024054;28;20414;-74
2022/06/24 12:55:47;;;;;;;2.33;0.85;;;;;;;;;;5026237;28;20033;-74
2022/06/24 12:58:13;;;;;;;4.80;0.85;;;;;;;;;;5021877;28;20029;-74
2022/06/24 13:00:39;;;;;;;1.95;0.82;;;;;;;;;;5024937;28;20025;-74
2022/06/24 13:03:05;;;;;;;2.05;0.60;;;;;;;;;;5025246;28;20485;-74
2022/06/24 13:05:31;;;;;;;2.97;0.70;;;;;;;;;;5023677;28;20038;-74
2022/06/24 13:07:57;;;;;;;3.00;0.68;;;;;;;;;;5025416;28;20064;-74
2022/06/24 13:10:23;;;;;;;6.03;0.90;;;;;;;;;;5022850;28;20041;-74
2022/06/24 13:12:50;;;;;;;3.92;0.70;;;;;;;;;;5022571;28;20033;-74
2022/06/24 13:15:17;;;;;;;5.60;0.60;;;;;;;;;;5026784;28;20033;-74
2022/06/24 13:17:43;;;;;;;4.78;0.50;;;;;;;;;;5021593;28;20685;-74
2022/06/24 13:20:10;;;;;;;3.95;0.70;;;;;;;;;;5026527;28;20045;-74
2022/06/24 13:22:36;;;;;;;3.72;1.15;;;;;;;;;;5022593;28;20140;-74
2022/06/24 13:25:04;;;;;;;4.82;1.10;;;;;;;;;;5028316;28;20088;-74
2022/06/24 13:27:30;;;;;;;1.80;0.55;;;;;;;;;;5026847;28;20065;-74
2022/06/24 13:29:57;;;;;;;1.42;0.22;;;;;;;;;;5025982;28;20765;-74
2022/06/24 13:32:23;;;;;;;2.63;0.38;;;;;;;;;;5019904;28;20109;-74
2022/06/24 13:34:49;;;;;;;1.65;0.30;;;;;;;;;;5023551;28;20132;-74
2022/06/24 13:37:15;;;;;;;1.58;0.30;;;;;;;;;;5023301;28;20539;-74
2022/06/24 13:39:41;;;;;;;3.47;0.70;;;;;;;;;;5023110;28;20034;-74
2022/06/24 13:42:07;;;;;;;3.15;0.50;;;;;;;;;;5026281;28;20597;-74
2022/06/24 13:44:35;;;;;;;1.58;0.65;;;;;;;;;;5027824;28;20713;-74
2022/06/24 13:47:02;;;;;;;1.65;0.30;;;;;;;;;;5024056;28;20028;-73
2022/06/24 13:49:28;;;;;;;2.65;0.50;;;;;;;;;;5025118;28;20076;-74
2022/06/24 13:51:54;;;;;;;2.28;0.45;;;;;;;;;;5026694;28;20071;-73
2022/06/24 13:54:20;;;;;;;3.05;0.70;;;;;;;;;;5020880;28;20124;-74
2022/06/24 13:56:46;;;;;;;4.43;0.90;;;;;;;;;;5020847;28;20113;-74
2022/06/24 13:59:14;;;;;;;5.15;1.00;;;;;;;;;;5023470;28;20076;-74
2022/06/24 14:01:41;;;;;;;3.63;0.60;;;;;;;;;;5019255;28;20021;-74
2022/06/24 14:04:07;;;;;;;4.35;1.02;;;;;;;;;;5026351;28;20050;-74
2022/06/24 14:06:33;;;;;;;6.80;1.13;;;;;;;;;;5025155;28;20029;-74
2022/06/24 14:08:59;;;;;;;4.40;1.17;;;;;;;;;;5016552;28;20041;-73
2022/06/24 14:11:25;;;;;;;3.47;0.85;;;;;;;;;;5022995;28;20499;-74
2022/06/24 14:13:51;;;;;;;3.67;0.90;;;;;;;;;;5032483;28;20041;-74
2022/06/24 14:16:17;;;;;;;2.15;0.70;;;;;;;;;;5021697;28;20026;-74
2022/06/24 14:18:43;;;;;;;4.88;0.55;;;;;;;;;;5028256;28;20045;-74
2022/06/24 14:21:09;;;;;;;2.80;0.40;;;;;;;;;;5024873;28;20414;-74
2022/06/24 14:26:21;;;;;;;5.55;0.70;;;;;;;;;;5027257;28;20049;-74
2022/06/24 14:28:47;;;;;;;3.92;0.50;;;;;;;;;;5021889;28;20144;-74
2022/06/24 14:31:13;;;;;;;4.22;0.95;;;;;;;;;;5023697;28;20034;-74
2022/06/24 14:33:39;;;;;;;3.28;0.50;;;;;;;;;;5024836;28;20053;-74
2022/06/24 14:36:05;;;;;;;2.92;0.50;;;;;;;;;;5025064;28;20360;-74
2022/06/24 14:41:17;;;;;;;5.80;0.60;;;;;;;;;;5024323;28;20036;-74
2022/06/24 14:43:43;;;;;;;2.58;0.50;;;;;;;;;;5025625;28;20041;-74
2022/06/24 14:46:09;;;;;;;3.70;0.50;;;;;;;;;;5018090;28;20104;-74
2022/06/24 14:48:35;;;;;;;1.83;0.52;;;;;;;;;;5023682;28;20574;-74
2022/06/24 14:51:02;;;;;;;5.88;0.68;;;;;;;;;;5023747;28;20110;-74
2022/06/24 14:53:28;;;;;;;6.32;0.63;;;;;;;;;;5024440;28;20048;-74
2022/06/24 14:55:54;;;;;;;3.03;0.70;;;;;;;;;;5025359;28;20133;-74